sensor_id;sensor_type;location;lat;lon;timestamp;pressure;altitude;pressure_sealevel;temperature;humidity
12951;BME280;6540;50.858;7.232;2023-03-01T00:01:38;51937.25;;;-142.34;27.07
12951;BME280;6540;50.858;7.232;2023-03-01T00:04:04;51937.25;;;-142.34;26.51
12951;BME280;6540;50.858;7.232;2023-03-01T00:06:29;51919.09;;;-142.34;26.24
12951;BME280;6540;50.858;7.232;2023-03-01T00:08:55;51961.47;;;-142.34;26.24
12951;BME280;6540;50.858;7.232;2023-03-01T00:13:47;51923.13;;;-142.34;26.92
12951;BME280;6540;50.858;7.232;2023-03-01T00:16:16;51921.13;;;-142.34;26.44
12951;BME280;6540;50.858;7.232;2023-03-01T00:18:41;51959.44;;;-142.34;26.07
12951;BME280;6540;50.858;7.232;2023-03-01T00:21:07;51939.28;;;-142.34;26.47
12951;BME280;6540;50.858;7.232;2023-03-01T00:23:36;51937.25;;;-142.34;26.09
12951;BME280;6540;50.858;7.232;2023-03-01T00:26:05;51941.28;;;-142.34;25.80
12951;BME280;6540;50.858;7.232;2023-03-01T00:28:31;51915.06;;;-142.34;26.32
12951;BME280;6540;50.858;7.232;2023-03-01T00:31:03;51902.97;;;-142.34;26.83
12951;BME280;6540;50.858;7.232;2023-03-01T00:33:28;51915.06;;;-142.34;26.89
12951;BME280;6540;50.858;7.232;2023-03-01T00:35:54;51939.28;;;-142.34;26.63
12951;BME280;6540;50.858;7.232;2023-03-01T00:38:19;51929.19;;;-142.34;27.42
12951;BME280;6540;50.858;7.232;2023-03-01T00:40:44;51888.84;;;-142.34;27.44
12951;BME280;6540;50.858;7.232;2023-03-01T00:43:09;51894.88;;;-142.34;27.56
12951;BME280;6540;50.858;7.232;2023-03-01T00:45:35;51898.94;;;-142.34;27.78
12951;BME280;6540;50.858;7.232;2023-03-01T00:48:00;51894.88;;;-142.34;28.70
12951;BME280;6540;50.858;7.232;2023-03-01T00:50:26;51907.00;;;-142.34;28.12
12951;BME280;6540;50.858;7.232;2023-03-01T00:52:55;51878.75;;;-142.34;27.74
12951;BME280;6540;50.858;7.232;2023-03-01T00:55:21;51888.84;;;-142.34;27.58
12951;BME280;6540;50.858;7.232;2023-03-01T00:57:46;51890.84;;;-142.34;27.69
12951;BME280;6540;50.858;7.232;2023-03-01T01:00:12;51951.38;;;-142.34;28.69
12951;BME280;6540;50.858;7.232;2023-03-01T01:02:37;51888.84;;;-142.34;28.38
12951;BME280;6540;50.858;7.232;2023-03-01T01:05:04;51894.88;;;-142.34;27.86
12951;BME280;6540;50.858;7.232;2023-03-01T01:07:29;51876.72;;;-142.34;28.51
12951;BME280;6540;50.858;7.232;2023-03-01T01:09:55;51880.78;;;-142.34;27.78
12951;BME280;6540;50.858;7.232;2023-03-01T01:12:20;51939.28;;;-142.34;27.74
12951;BME280;6540;50.858;7.232;2023-03-01T01:14:45;51917.06;;;-142.34;27.58
12951;BME280;6540;50.858;7.232;2023-03-01T01:17:11;51935.25;;;-142.34;26.71
12951;BME280;6540;50.858;7.232;2023-03-01T01:19:36;51975.59;;;-142.34;26.08
12951;BME280;6540;50.858;7.232;2023-03-01T01:22:02;51945.31;;;-142.34;26.17
12951;BME280;6540;50.858;7.232;2023-03-01T01:24:28;51927.16;;;-142.34;25.83
12951;BME280;6540;50.858;7.232;2023-03-01T01:26:53;51882.78;;;-142.34;25.29
12951;BME280;6540;50.858;7.232;2023-03-01T01:29:19;51959.44;;;-142.34;25.94
12951;BME280;6540;50.858;7.232;2023-03-01T01:31:44;51909.00;;;-142.34;27.19
12951;BME280;6540;50.858;7.232;2023-03-01T01:34:16;51933.22;;;-142.34;27.27
12951;BME280;6540;50.858;7.232;2023-03-01T01:36:42;51919.09;;;-142.34;28.32
12951;BME280;6540;50.858;7.232;2023-03-01T01:39:07;51898.94;;;-142.34;27.87
12951;BME280;6540;50.858;7.232;2023-03-01T01:41:36;51961.47;;;-142.34;28.45
12951;BME280;6540;50.858;7.232;2023-03-01T01:44:20;51915.06;;;-142.34;27.97
12951;BME280;6540;50.858;7.232;2023-03-01T01:47:05;51923.13;;;-142.34;26.55
12951;BME280;6540;50.858;7.232;2023-03-01T01:54:40;51961.47;;;-142.34;29.24
12951;BME280;6540;50.858;7.232;2023-03-01T01:57:10;51902.97;;;-142.34;28.28
12951;BME280;6540;50.858;7.232;2023-03-01T01:59:37;51907.00;;;-142.34;27.79
12951;BME280;6540;50.858;7.232;2023-03-01T02:02:04;51900.94;;;-142.34;28.25
12951;BME280;6540;50.858;7.232;2023-03-01T02:04:31;51915.06;;;-142.34;28.46
12951;BME280;6540;50.858;7.232;2023-03-01T02:07:07;51894.88;;;-142.34;28.06
12951;BME280;6540;50.858;7.232;2023-03-01T02:09:35;51915.06;;;-142.34;28.48
12951;BME280;6540;50.858;7.232;2023-03-01T02:12:02;51878.75;;;-142.34;28.83
12951;BME280;6540;50.858;7.232;2023-03-01T02:14:27;51925.16;;;-142.34;29.70
12951;BME280;6540;50.858;7.232;2023-03-01T02:16:53;51890.84;;;-142.34;29.60
12951;BME280;6540;50.858;7.232;2023-03-01T02:22:24;51911.03;;;-142.34;28.39
12951;BME280;6540;50.858;7.232;2023-03-01T02:27:51;51870.69;;;-142.34;27.28
12951;BME280;6540;50.858;7.232;2023-03-01T02:30:21;51911.03;;;-142.34;28.31
12951;BME280;6540;50.858;7.232;2023-03-01T02:32:48;51898.94;;;-142.34;28.56
12951;BME280;6540;50.858;7.232;2023-03-01T02:35:15;51904.97;;;-142.34;28.22
12951;BME280;6540;50.858;7.232;2023-03-01T02:37:42;51902.97;;;-142.34;29.09
12951;BME280;6540;50.858;7.232;2023-03-01T02:40:13;51927.16;;;-142.34;28.12
12951;BME280;6540;50.858;7.232;2023-03-01T02:42:56;51919.09;;;-142.34;26.87
12951;BME280;6540;50.858;7.232;2023-03-01T02:45:22;51935.25;;;-142.34;27.27
12951;BME280;6540;50.858;7.232;2023-03-01T02:47:48;51939.28;;;-142.34;28.17
12951;BME280;6540;50.858;7.232;2023-03-01T02:53:16;51913.03;;;-142.34;29.42
12951;BME280;6540;50.858;7.232;2023-03-01T02:55:47;51915.06;;;-142.34;29.65
12951;BME280;6540;50.858;7.232;2023-03-01T02:58:13;51909.00;;;-142.34;29.16
12951;BME280;6540;50.858;7.232;2023-03-01T03:00:41;51864.63;;;-142.34;28.49
12951;BME280;6540;50.858;7.232;2023-03-01T03:03:13;51896.91;;;-142.34;28.94
12951;BME280;6540;50.858;7.232;2023-03-01T03:05:38;51913.03;;;-142.34;29.89
12951;BME280;6540;50.858;7.232;2023-03-01T03:08:04;51907.00;;;-142.34;29.53
12951;BME280;6540;50.858;7.232;2023-03-01T03:10:35;51915.06;;;-142.34;30.31
12951;BME280;6540;50.858;7.232;2023-03-01T03:13:04;51866.66;;;-142.34;29.67
12951;BME280;6540;50.858;7.232;2023-03-01T03:15:30;51915.06;;;-142.34;28.89
12951;BME280;6540;50.858;7.232;2023-03-01T03:17:57;51898.94;;;-142.34;27.72
12951;BME280;6540;50.858;7.232;2023-03-01T03:20:25;51876.72;;;-142.34;27.68
12951;BME280;6540;50.858;7.232;2023-03-01T03:22:53;51911.03;;;-142.34;27.71
12951;BME280;6540;50.858;7.232;2023-03-01T03:25:20;51915.06;;;-142.34;28.66
12951;BME280;6540;50.858;7.232;2023-03-01T03:27:47;51882.78;;;-142.34;29.81
12951;BME280;6540;50.858;7.232;2023-03-01T03:30:16;51915.06;;;-142.34;30.18
12951;BME280;6540;50.858;7.232;2023-03-01T03:32:43;51923.13;;;-142.34;29.24
12951;BME280;6540;50.858;7.232;2023-03-01T03:35:18;51890.84;;;-142.34;29.03
12951;BME280;6540;50.858;7.232;2023-03-01T03:37:44;51947.34;;;-142.34;28.73
12951;BME280;6540;50.858;7.232;2023-03-01T03:40:38;51921.13;;;-142.34;29.07
12951;BME280;6540;50.858;7.232;2023-03-01T03:43:09;51894.88;;;-142.34;29.72
12951;BME280;6540;50.858;7.232;2023-03-01T03:45:36;51921.13;;;-142.34;28.68
12951;BME280;6540;50.858;7.232;2023-03-01T03:48:03;51892.88;;;-142.34;30.40
12951;BME280;6540;50.858;7.232;2023-03-01T03:50:30;51870.69;;;-142.34;30.67
12951;BME280;6540;50.858;7.232;2023-03-01T03:52:55;51888.84;;;-142.34;30.00
12951;BME280;6540;50.858;7.232;2023-03-01T03:55:20;51890.84;;;-142.34;30.05
12951;BME280;6540;50.858;7.232;2023-03-01T03:57:47;51850.50;;;-142.34;28.61
12951;BME280;6540;50.858;7.232;2023-03-01T04:00:20;51894.88;;;-142.34;27.19
12951;BME280;6540;50.858;7.232;2023-03-01T04:02:49;51923.13;;;-142.34;27.00
12951;BME280;6540;50.858;7.232;2023-03-01T04:05:16;51939.28;;;-142.34;27.41
12951;BME280;6540;50.858;7.232;2023-03-01T04:07:43;51907.00;;;-142.34;28.27
12951;BME280;6540;50.858;7.232;2023-03-01T04:10:12;51947.34;;;-142.34;27.34
12951;BME280;6540;50.858;7.232;2023-03-01T04:12:37;51890.84;;;-142.34;27.28
12951;BME280;6540;50.858;7.232;2023-03-01T04:15:04;51979.63;;;-142.34;28.66
12951;BME280;6540;50.858;7.232;2023-03-01T04:17:41;51894.88;;;-142.34;27.33
12951;BME280;6540;50.858;7.232;2023-03-01T04:20:09;51866.66;;;-142.34;26.95
12951;BME280;6540;50.858;7.232;2023-03-01T04:22:37;51931.19;;;-142.34;26.72
12951;BME280;6540;50.858;7.232;2023-03-01T04:25:02;51947.34;;;-142.34;27.62
12951;BME280;6540;50.858;7.232;2023-03-01T04:27:27;51971.53;;;-142.34;26.85
12951;BME280;6540;50.858;7.232;2023-03-01T04:29:53;51967.50;;;-142.34;26.16
12951;BME280;6540;50.858;7.232;2023-03-01T04:32:18;51967.50;;;-142.34;25.43
12951;BME280;6540;50.858;7.232;2023-03-01T04:34:43;51935.25;;;-142.34;25.90
12951;BME280;6540;50.858;7.232;2023-03-01T04:37:09;51953.41;;;-142.34;26.73
12951;BME280;6540;50.858;7.232;2023-03-01T04:39:34;51947.34;;;-142.34;26.75
12951;BME280;6540;50.858;7.232;2023-03-01T04:42:14;51941.28;;;-142.34;26.66
12951;BME280;6540;50.858;7.232;2023-03-01T04:44:40;51953.41;;;-142.34;26.58
12951;BME280;6540;50.858;7.232;2023-03-01T04:47:05;51921.13;;;-142.34;25.70
12951;BME280;6540;50.858;7.232;2023-03-01T04:49:31;51961.47;;;-142.34;25.65
12951;BME280;6540;50.858;7.232;2023-03-01T04:51:57;51925.16;;;-142.34;25.44
12951;BME280;6540;50.858;7.232;2023-03-01T04:54:33;51971.53;;;-142.34;25.85
12951;BME280;6540;50.858;7.232;2023-03-01T04:57:00;51923.13;;;-142.34;25.81
12951;BME280;6540;50.858;7.232;2023-03-01T04:59:25;51896.91;;;-142.34;27.02
12951;BME280;6540;50.858;7.232;2023-03-01T05:01:52;51911.03;;;-142.34;27.22
12951;BME280;6540;50.858;7.232;2023-03-01T05:04:17;51947.34;;;-142.34;26.91
12951;BME280;6540;50.858;7.232;2023-03-01T05:06:43;51911.03;;;-142.34;26.63
12951;BME280;6540;50.858;7.232;2023-03-01T05:09:09;51943.31;;;-142.34;26.27
12951;BME280;6540;50.858;7.232;2023-03-01T05:11:36;51939.28;;;-142.34;26.27
12951;BME280;6540;50.858;7.232;2023-03-01T05:14:02;51943.31;;;-142.34;26.22
12951;BME280;6540;50.858;7.232;2023-03-01T05:16:28;51927.16;;;-142.34;27.02
12951;BME280;6540;50.858;7.232;2023-03-01T05:18:55;51907.00;;;-142.34;26.56
12951;BME280;6540;50.858;7.232;2023-03-01T05:21:22;51943.31;;;-142.34;26.35
12951;BME280;6540;50.858;7.232;2023-03-01T05:23:47;51957.44;;;-142.34;26.66
12951;BME280;6540;50.858;7.232;2023-03-01T05:26:13;51963.47;;;-142.34;26.62
12951;BME280;6540;50.858;7.232;2023-03-01T05:28:39;51927.16;;;-142.34;26.85
12951;BME280;6540;50.858;7.232;2023-03-01T05:31:05;51959.44;;;-142.34;26.49
12951;BME280;6540;50.858;7.232;2023-03-01T05:33:36;51933.22;;;-142.34;26.19
12951;BME280;6540;50.858;7.232;2023-03-01T05:36:02;51975.59;;;-142.34;26.83
12951;BME280;6540;50.858;7.232;2023-03-01T05:38:27;51955.41;;;-142.34;26.96
12951;BME280;6540;50.858;7.232;2023-03-01T05:40:52;51896.91;;;-142.34;27.13
12951;BME280;6540;50.858;7.232;2023-03-01T05:43:18;51911.03;;;-142.34;26.52
12951;BME280;6540;50.858;7.232;2023-03-01T05:45:44;51951.38;;;-142.34;26.89
12951;BME280;6540;50.858;7.232;2023-03-01T05:48:10;51953.41;;;-142.34;26.48
12951;BME280;6540;50.858;7.232;2023-03-01T05:50:39;51939.28;;;-142.34;26.35
12951;BME280;6540;50.858;7.232;2023-03-01T05:53:09;51959.44;;;-142.34;27.05
12951;BME280;6540;50.858;7.232;2023-03-01T05:55:35;51898.94;;;-142.34;26.56
12951;BME280;6540;50.858;7.232;2023-03-01T05:58:03;51907.00;;;-142.34;26.37
12951;BME280;6540;50.858;7.232;2023-03-01T06:00:30;51955.41;;;-142.34;26.68
12951;BME280;6540;50.858;7.232;2023-03-01T06:02:57;51943.31;;;-142.34;26.54
12951;BME280;6540;50.858;7.232;2023-03-01T06:05:22;51951.38;;;-142.34;26.55
12951;BME280;6540;50.858;7.232;2023-03-01T06:07:48;51939.28;;;-142.34;26.20
12951;BME280;6540;50.858;7.232;2023-03-01T06:10:15;51915.06;;;-142.34;26.40
12951;BME280;6540;50.858;7.232;2023-03-01T06:12:41;51911.03;;;-142.34;26.33
12951;BME280;6540;50.858;7.232;2023-03-01T06:15:10;51953.41;;;-142.34;26.61
12951;BME280;6540;50.858;7.232;2023-03-01T06:17:38;51943.31;;;-142.34;26.46
12951;BME280;6540;50.858;7.232;2023-03-01T06:20:07;51953.41;;;-142.34;26.41
12951;BME280;6540;50.858;7.232;2023-03-01T06:22:33;51939.28;;;-142.34;26.71
12951;BME280;6540;50.858;7.232;2023-03-01T06:24:59;51935.25;;;-142.34;26.65
12951;BME280;6540;50.858;7.232;2023-03-01T06:27:24;51979.63;;;-142.34;27.12
12951;BME280;6540;50.858;7.232;2023-03-01T06:29:49;51919.09;;;-142.34;27.68
12951;BME280;6540;50.858;7.232;2023-03-01T06:32:15;51919.09;;;-142.34;26.90
12951;BME280;6540;50.858;7.232;2023-03-01T06:34:40;51911.03;;;-142.34;27.73
12951;BME280;6540;50.858;7.232;2023-03-01T06:37:06;51915.06;;;-142.34;27.45
12951;BME280;6540;50.858;7.232;2023-03-01T06:39:32;51943.31;;;-142.34;28.20
12951;BME280;6540;50.858;7.232;2023-03-01T06:41:58;51951.38;;;-142.34;28.89
12951;BME280;6540;50.858;7.232;2023-03-01T06:44:23;51911.03;;;-142.34;28.92
12951;BME280;6540;50.858;7.232;2023-03-01T06:46:49;51880.78;;;-142.34;29.16
12951;BME280;6540;50.858;7.232;2023-03-01T06:49:14;51909.00;;;-142.34;29.68
12951;BME280;6540;50.858;7.232;2023-03-01T06:51:41;51907.00;;;-142.34;30.43
12951;BME280;6540;50.858;7.232;2023-03-01T06:54:06;51900.94;;;-142.34;30.59
12951;BME280;6540;50.858;7.232;2023-03-01T06:56:32;51860.59;;;-142.34;30.58
12951;BME280;6540;50.858;7.232;2023-03-01T06:58:58;51872.69;;;-142.34;30.81
12951;BME280;6540;50.858;7.232;2023-03-01T07:01:23;51876.72;;;-142.34;30.78
12951;BME280;6540;50.858;7.232;2023-03-01T07:03:49;51872.69;;;-142.34;30.15
12951;BME280;6540;50.858;7.232;2023-03-01T07:06:14;51909.00;;;-142.34;30.37
12951;BME280;6540;50.858;7.232;2023-03-01T07:08:39;51892.88;;;-142.34;31.38
12951;BME280;6540;50.858;7.232;2023-03-01T07:11:05;51874.72;;;-142.34;30.67
12951;BME280;6540;50.858;7.232;2023-03-01T07:13:31;51850.50;;;-142.34;31.35
12951;BME280;6540;50.858;7.232;2023-03-01T07:15:56;51826.31;;;-142.34;29.80
12951;BME280;6540;50.858;7.232;2023-03-01T07:18:22;51870.69;;;-142.34;30.29
12951;BME280;6540;50.858;7.232;2023-03-01T07:20:47;51870.69;;;-142.34;29.83
12951;BME280;6540;50.858;7.232;2023-03-01T07:23:12;51886.81;;;-142.34;30.67
12951;BME280;6540;50.858;7.232;2023-03-01T07:25:38;51882.78;;;-142.34;30.88
12951;BME280;6540;50.858;7.232;2023-03-01T07:28:03;51937.25;;;-142.34;31.14
12951;BME280;6540;50.858;7.232;2023-03-01T07:30:29;51870.69;;;-142.34;30.75
12951;BME280;6540;50.858;7.232;2023-03-01T07:32:55;51862.63;;;-142.34;30.21
12951;BME280;6540;50.858;7.232;2023-03-01T07:35:23;51876.72;;;-142.34;30.73
12951;BME280;6540;50.858;7.232;2023-03-01T07:37:48;51894.88;;;-142.34;31.07
12951;BME280;6540;50.858;7.232;2023-03-01T07:40:13;51902.97;;;-142.34;30.79
12951;BME280;6540;50.858;7.232;2023-03-01T07:42:39;51866.66;;;-142.34;31.16
12951;BME280;6540;50.858;7.232;2023-03-01T07:45:05;51890.84;;;-142.34;29.87
12951;BME280;6540;50.858;7.232;2023-03-01T07:47:31;51856.56;;;-142.34;28.83
12951;BME280;6540;50.858;7.232;2023-03-01T07:49:57;51935.25;;;-142.34;30.68
12951;BME280;6540;50.858;7.232;2023-03-01T07:52:22;51902.97;;;-142.34;30.75
12951;BME280;6540;50.858;7.232;2023-03-01T07:54:47;51904.97;;;-142.34;28.88
12951;BME280;6540;50.858;7.232;2023-03-01T07:57:12;51907.00;;;-142.34;29.28
12951;BME280;6540;50.858;7.232;2023-03-01T07:59:38;51959.44;;;-142.34;28.87
12951;BME280;6540;50.858;7.232;2023-03-01T08:02:03;51935.25;;;-142.34;28.87
12951;BME280;6540;50.858;7.232;2023-03-01T08:04:29;51935.25;;;-142.34;29.09
12951;BME280;6540;50.858;7.232;2023-03-01T08:06:54;51929.19;;;-142.34;29.26
12951;BME280;6540;50.858;7.232;2023-03-01T08:09:21;51929.19;;;-142.34;29.13
12951;BME280;6540;50.858;7.232;2023-03-01T08:11:46;51931.19;;;-142.34;29.21
12951;BME280;6540;50.858;7.232;2023-03-01T08:14:12;51963.47;;;-142.34;29.56
12951;BME280;6540;50.858;7.232;2023-03-01T08:16:37;51917.06;;;-142.34;28.29
12951;BME280;6540;50.858;7.232;2023-03-01T08:19:10;51907.00;;;-142.34;27.46
12951;BME280;6540;50.858;7.232;2023-03-01T08:21:37;51957.44;;;-142.34;26.87
12951;BME280;6540;50.858;7.232;2023-03-01T08:24:04;51947.34;;;-142.34;27.02
12951;BME280;6540;50.858;7.232;2023-03-01T08:26:31;51949.34;;;-142.34;27.02
12951;BME280;6540;50.858;7.232;2023-03-01T08:28:57;52005.84;;;-142.34;26.58
12951;BME280;6540;50.858;7.232;2023-03-01T08:31:25;51939.28;;;-142.34;27.59
12951;BME280;6540;50.858;7.232;2023-03-01T08:33:53;51953.41;;;-142.34;26.70
12951;BME280;6540;50.858;7.232;2023-03-01T08:36:23;51913.03;;;-142.34;26.90
12951;BME280;6540;50.858;7.232;2023-03-01T08:38:49;51973.56;;;-142.34;26.56
12951;BME280;6540;50.858;7.232;2023-03-01T08:41:14;51947.34;;;-142.34;26.81
12951;BME280;6540;50.858;7.232;2023-03-01T08:43:40;51971.53;;;-142.34;26.02
12951;BME280;6540;50.858;7.232;2023-03-01T08:46:06;51989.69;;;-142.34;25.69
12951;BME280;6540;50.858;7.232;2023-03-01T08:48:31;51963.47;;;-142.34;26.72
12951;BME280;6540;50.858;7.232;2023-03-01T08:50:56;51955.41;;;-142.34;26.88
12951;BME280;6540;50.858;7.232;2023-03-01T08:53:22;51961.47;;;-142.34;28.69
12951;BME280;6540;50.858;7.232;2023-03-01T08:55:47;51955.41;;;-142.34;28.09
12951;BME280;6540;50.858;7.232;2023-03-01T08:58:12;51967.50;;;-142.34;27.05
12951;BME280;6540;50.858;7.232;2023-03-01T09:00:38;51961.47;;;-142.34;27.39
12951;BME280;6540;50.858;7.232;2023-03-01T09:03:05;52009.88;;;-142.34;26.10
12951;BME280;6540;50.858;7.232;2023-03-01T09:05:34;51945.31;;;-142.34;25.77
12951;BME280;6540;50.858;7.232;2023-03-01T09:07:59;51995.75;;;-142.34;25.45
12951;BME280;6540;50.858;7.232;2023-03-01T09:10:24;51953.41;;;-142.34;25.97
12951;BME280;6540;50.858;7.232;2023-03-01T09:12:51;51935.25;;;-142.34;25.73
12951;BME280;6540;50.858;7.232;2023-03-01T09:15:16;51987.69;;;-142.34;26.07
12951;BME280;6540;50.858;7.232;2023-03-01T09:17:41;51971.53;;;-142.34;27.08
12951;BME280;6540;50.858;7.232;2023-03-01T09:20:07;51985.66;;;-142.34;26.68
12951;BME280;6540;50.858;7.232;2023-03-01T09:22:33;51915.06;;;-142.34;25.88
12951;BME280;6540;50.858;7.232;2023-03-01T09:25:00;51955.41;;;-142.34;25.60
12951;BME280;6540;50.858;7.232;2023-03-01T09:27:25;51955.41;;;-142.34;27.36
12951;BME280;6540;50.858;7.232;2023-03-01T09:29:51;51971.53;;;-142.34;26.50
12951;BME280;6540;50.858;7.232;2023-03-01T09:32:16;51935.25;;;-142.34;27.16
12951;BME280;6540;50.858;7.232;2023-03-01T09:34:41;51959.44;;;-142.34;25.76
12951;BME280;6540;50.858;7.232;2023-03-01T09:37:26;51951.38;;;-142.34;27.14
12951;BME280;6540;50.858;7.232;2023-03-01T09:39:52;51977.59;;;-142.34;25.24
12951;BME280;6540;50.858;7.232;2023-03-01T09:42:17;51991.72;;;-142.34;25.98
12951;BME280;6540;50.858;7.232;2023-03-01T09:44:51;51955.41;;;-142.34;26.01
12951;BME280;6540;50.858;7.232;2023-03-01T09:47:24;51979.63;;;-142.34;26.66
12951;BME280;6540;50.858;7.232;2023-03-01T09:49:58;51935.25;;;-142.34;27.42
12951;BME280;6540;50.858;7.232;2023-03-01T09:54:55;51957.44;;;-142.34;26.27
12951;BME280;6540;50.858;7.232;2023-03-01T09:57:33;51945.31;;;-142.34;26.88
12951;BME280;6540;50.858;7.232;2023-03-01T10:05:55;51981.63;;;-142.34;24.07
12951;BME280;6540;50.858;7.232;2023-03-01T10:11:19;51951.38;;;-142.34;24.42
12951;BME280;6540;50.858;7.232;2023-03-01T10:14:13;51965.50;;;-142.34;24.76
12951;BME280;6540;50.858;7.232;2023-03-01T10:16:54;51983.66;;;-142.34;24.93
12951;BME280;6540;50.858;7.232;2023-03-01T10:19:41;51947.34;;;-142.34;26.71
12951;BME280;6540;50.858;7.232;2023-03-01T10:22:13;51939.28;;;-142.34;25.02
12951;BME280;6540;50.858;7.232;2023-03-01T10:24:40;51959.44;;;-142.34;24.68
12951;BME280;6540;50.858;7.232;2023-03-01T10:32:32;51929.19;;;-142.34;25.73
12951;BME280;6540;50.858;7.232;2023-03-01T10:34:57;51955.41;;;-142.34;24.71
12951;BME280;6540;50.858;7.232;2023-03-01T10:37:24;51963.47;;;-142.34;24.96
12951;BME280;6540;50.858;7.232;2023-03-01T10:40:05;51939.28;;;-142.34;25.22
12951;BME280;6540;50.858;7.232;2023-03-01T10:42:37;51955.41;;;-142.34;24.21
12951;BME280;6540;50.858;7.232;2023-03-01T10:50:49;51959.44;;;-142.34;25.36
12951;BME280;6540;50.858;7.232;2023-03-01T10:53:31;51927.16;;;-142.34;24.91
12951;BME280;6540;50.858;7.232;2023-03-01T10:58:26;51890.84;;;-142.34;25.97
12951;BME280;6540;50.858;7.232;2023-03-01T11:03:28;51931.19;;;-142.34;24.44
12951;BME280;6540;50.858;7.232;2023-03-01T11:08:51;51979.63;;;-142.34;23.56
12951;BME280;6540;50.858;7.232;2023-03-01T11:11:25;51955.41;;;-142.34;24.08
12951;BME280;6540;50.858;7.232;2023-03-01T11:13:55;51955.41;;;-142.34;23.40
12951;BME280;6540;50.858;7.232;2023-03-01T11:16:27;51949.34;;;-142.34;23.73
12951;BME280;6540;50.858;7.232;2023-03-01T11:18:59;51919.09;;;-142.34;23.73
12951;BME280;6540;50.858;7.232;2023-03-01T11:21:26;51951.38;;;-142.34;23.09
12951;BME280;6540;50.858;7.232;2023-03-01T11:23:53;51967.50;;;-142.34;24.22
12951;BME280;6540;50.858;7.232;2023-03-01T11:26:19;51943.31;;;-142.34;24.89
12951;BME280;6540;50.858;7.232;2023-03-01T11:28:50;51943.31;;;-142.34;23.97
12951;BME280;6540;50.858;7.232;2023-03-01T11:31:18;51953.41;;;-142.34;23.85
12951;BME280;6540;50.858;7.232;2023-03-01T11:39:02;51927.16;;;-142.34;24.84
12951;BME280;6540;50.858;7.232;2023-03-01T11:41:32;51947.34;;;-142.34;23.39
12951;BME280;6540;50.858;7.232;2023-03-01T11:44:15;51931.19;;;-142.34;24.10
12951;BME280;6540;50.858;7.232;2023-03-01T11:55:43;51919.09;;;-142.34;23.20
12951;BME280;6540;50.858;7.232;2023-03-01T11:58:24;51927.16;;;-142.34;22.59
12951;BME280;6540;50.858;7.232;2023-03-01T12:19:53;51890.84;;;-142.34;23.26
12951;BME280;6540;50.858;7.232;2023-03-01T12:22:38;51917.06;;;-142.34;23.80
12951;BME280;6540;50.858;7.232;2023-03-01T12:33:19;51894.88;;;-142.34;22.66
12951;BME280;6540;50.858;7.232;2023-03-01T12:36:02;51911.03;;;-142.34;22.67
12951;BME280;6540;50.858;7.232;2023-03-01T12:38:59;51898.94;;;-142.34;22.07
12951;BME280;6540;50.858;7.232;2023-03-01T12:41:53;51915.06;;;-142.34;22.19
12951;BME280;6540;50.858;7.232;2023-03-01T12:50:26;51898.94;;;-142.34;22.33
12951;BME280;6540;50.858;7.232;2023-03-01T12:52:58;51904.97;;;-142.34;23.67
12951;BME280;6540;50.858;7.232;2023-03-01T12:55:41;51882.78;;;-142.34;23.02
12951;BME280;6540;50.858;7.232;2023-03-01T12:58:32;51923.13;;;-142.34;21.97
12951;BME280;6540;50.858;7.232;2023-03-01T13:01:41;51911.03;;;-142.34;22.55
12951;BME280;6540;50.858;7.232;2023-03-01T13:17:48;51876.72;;;-142.34;22.09
12951;BME280;6540;50.858;7.232;2023-03-01T13:20:19;51894.88;;;-142.34;22.55
12951;BME280;6540;50.858;7.232;2023-03-01T13:22:46;51902.97;;;-142.34;22.67
12951;BME280;6540;50.858;7.232;2023-03-01T13:25:19;51858.56;;;-142.34;22.72
12951;BME280;6540;50.858;7.232;2023-03-01T13:27:46;51876.72;;;-142.34;21.97
12951;BME280;6540;50.858;7.232;2023-03-01T13:35:53;51882.78;;;-142.34;21.74
12951;BME280;6540;50.858;7.232;2023-03-01T13:41:03;51886.81;;;-142.34;22.05
12951;BME280;6540;50.858;7.232;2023-03-01T13:43:35;51880.78;;;-142.34;21.18
12951;BME280;6540;50.858;7.232;2023-03-01T13:46:08;51850.50;;;-142.34;21.39
12951;BME280;6540;50.858;7.232;2023-03-01T13:48:36;51876.72;;;-142.34;21.30
12951;BME280;6540;50.858;7.232;2023-03-01T13:51:06;51872.69;;;-142.34;22.13
12951;BME280;6540;50.858;7.232;2023-03-01T13:53:40;51862.63;;;-142.34;21.81
12951;BME280;6540;50.858;7.232;2023-03-01T13:56:20;51874.72;;;-142.34;21.82
12951;BME280;6540;50.858;7.232;2023-03-01T13:59:06;51870.69;;;-142.34;21.81
12951;BME280;6540;50.858;7.232;2023-03-01T14:01:37;51874.72;;;-142.34;21.52
12951;BME280;6540;50.858;7.232;2023-03-01T14:04:03;51850.50;;;-142.34;21.64
12951;BME280;6540;50.858;7.232;2023-03-01T14:06:43;51864.63;;;-142.34;20.94
12951;BME280;6540;50.858;7.232;2023-03-01T14:09:16;51890.84;;;-142.34;21.91
12951;BME280;6540;50.858;7.232;2023-03-01T14:19:35;51858.56;;;-142.34;21.57
12951;BME280;6540;50.858;7.232;2023-03-01T14:22:24;51890.84;;;-142.34;21.33
12951;BME280;6540;50.858;7.232;2023-03-01T14:25:05;51844.47;;;-142.34;20.85
12951;BME280;6540;50.858;7.232;2023-03-01T14:27:39;51852.53;;;-142.34;21.57
12951;BME280;6540;50.858;7.232;2023-03-01T14:30:25;51866.66;;;-142.34;21.73
12951;BME280;6540;50.858;7.232;2023-03-01T14:33:00;51844.47;;;-142.34;21.46
12951;BME280;6540;50.858;7.232;2023-03-01T14:35:34;51848.50;;;-142.34;21.26
12951;BME280;6540;50.858;7.232;2023-03-01T14:38:01;51892.88;;;-142.34;21.84
12951;BME280;6540;50.858;7.232;2023-03-01T14:40:30;51886.81;;;-142.34;22.43
12951;BME280;6540;50.858;7.232;2023-03-01T14:42:58;51892.88;;;-142.34;22.51
12951;BME280;6540;50.858;7.232;2023-03-01T14:45:27;51870.69;;;-142.34;22.16
12951;BME280;6540;50.858;7.232;2023-03-01T14:47:54;51898.94;;;-142.34;23.36
12951;BME280;6540;50.858;7.232;2023-03-01T14:50:35;51862.63;;;-142.34;22.26
12951;BME280;6540;50.858;7.232;2023-03-01T14:53:06;51870.69;;;-142.34;22.92
12951;BME280;6540;50.858;7.232;2023-03-01T14:55:36;51850.50;;;-142.34;22.53
12951;BME280;6540;50.858;7.232;2023-03-01T14:58:04;51854.53;;;-142.34;22.21
12951;BME280;6540;50.858;7.232;2023-03-01T15:00:31;51834.38;;;-142.34;22.58
12951;BME280;6540;50.858;7.232;2023-03-01T15:03:05;51856.56;;;-142.34;21.57